Time;durP1;ratioP1;P1;durP2;ratioP2;P2;SDS_P1;SDS_P2;PMS_P1;PMS_P2;Temp;Humidity;BMP_temperature;BMP_pressure;BME280_temperature;BME280_humidity;BME280_pressure;Samples;Min_cycle;Max_cycle;Signal;HPM_P1;HPM_P2
2024/02/11 00:01:12;;;;;;;12.90;7.85;;;;;;;;;;5049439;28;20041;-52
2024/02/11 00:03:39;;;;;;;13.02;7.68;;;;;;;;;;5049085;28;20067;-49
2024/02/11 00:06:10;;;;;;;13.00;7.68;;;;;;;;;;5049271;28;20076;-52
2024/02/11 00:08:40;;;;;;;13.23;7.93;;;;;;;;;;5049182;28;20035;-46
2024/02/11 00:11:06;;;;;;;13.35;8.00;;;;;;;;;;5049009;28;20029;-50
2024/02/11 00:13:33;;;;;;;13.40;8.23;;;;;;;;;;5047852;28;20398;-49
2024/02/11 00:16:00;;;;;;;13.25;8.02;;;;;;;;;;5049271;28;20029;-52
2024/02/11 00:18:28;;;;;;;13.27;8.13;;;;;;;;;;5047743;28;20029;-51
2024/02/11 00:20:55;;;;;;;13.32;8.00;;;;;;;;;;5050739;28;20025;-52
2024/02/11 00:23:22;;;;;;;13.30;8.02;;;;;;;;;;5051772;28;20025;-51
2024/02/11 00:25:48;;;;;;;13.32;8.00;;;;;;;;;;5051997;28;20026;-51
2024/02/11 00:28:14;;;;;;;13.32;7.93;;;;;;;;;;5051612;28;20041;-50
2024/02/11 00:30:40;;;;;;;13.25;7.90;;;;;;;;;;5052138;28;20060;-50
2024/02/11 00:33:06;;;;;;;13.32;8.05;;;;;;;;;;5052079;28;20029;-53
2024/02/11 00:35:33;;;;;;;13.13;7.80;;;;;;;;;;5052142;28;20407;-47
2024/02/11 00:38:00;;;;;;;13.35;7.95;;;;;;;;;;5050621;28;20443;-54
2024/02/11 00:40:26;;;;;;;13.20;7.80;;;;;;;;;;5050602;28;20029;-53
2024/02/11 00:42:52;;;;;;;13.32;7.80;;;;;;;;;;5050915;28;20032;-50
2024/02/11 00:45:18;;;;;;;13.23;7.90;;;;;;;;;;5052294;28;20028;-47
2024/02/11 00:47:47;;;;;;;13.32;8.00;;;;;;;;;;5052145;28;20021;-47
2024/02/11 00:50:14;;;;;;;13.35;8.05;;;;;;;;;;5052007;28;20029;-51
2024/02/11 00:52:44;;;;;;;13.23;7.80;;;;;;;;;;5051996;28;20036;-48
2024/02/11 00:55:11;;;;;;;13.35;7.95;;;;;;;;;;5051869;28;20025;-46
2024/02/11 00:57:38;;;;;;;13.38;8.00;;;;;;;;;;5050439;28;20056;-51
2024/02/11 01:00:11;;;;;;;13.23;7.90;;;;;;;;;;5050609;28;20460;-50
2024/02/11 01:02:40;;;;;;;13.20;7.70;;;;;;;;;;5051692;28;20044;-48
2024/02/11 01:05:07;;;;;;;13.10;7.63;;;;;;;;;;5051636;28;20028;-50
2024/02/11 01:07:33;;;;;;;13.32;8.00;;;;;;;;;;5051720;28;20017;-49
2024/02/11 01:09:59;;;;;;;12.98;7.57;;;;;;;;;;5051620;28;20397;-54
2024/02/11 01:12:25;;;;;;;13.10;7.60;;;;;;;;;;5051373;28;20115;-52
2024/02/11 01:14:55;;;;;;;12.77;7.50;;;;;;;;;;5051527;28;20063;-52
2024/02/11 01:17:23;;;;;;;12.40;7.20;;;;;;;;;;5050406;28;20434;-52
2024/02/11 01:19:49;;;;;;;12.07;7.10;;;;;;;;;;5051163;28;20530;-48
2024/02/11 01:22:15;;;;;;;12.32;7.20;;;;;;;;;;5051147;28;20036;-48
2024/02/11 01:24:41;;;;;;;12.40;7.30;;;;;;;;;;5051469;28;20028;-51
2024/02/11 01:27:08;;;;;;;12.40;7.20;;;;;;;;;;5051221;28;20025;-54
2024/02/11 01:29:35;;;;;;;12.15;7.10;;;;;;;;;;5049909;28;20491;-55
2024/02/11 01:32:01;;;;;;;11.88;6.97;;;;;;;;;;5050846;28;20025;-51
2024/02/11 01:34:29;;;;;;;12.00;7.00;;;;;;;;;;5049765;28;20471;-49
2024/02/11 01:36:55;;;;;;;12.02;7.00;;;;;;;;;;5050728;28;20395;-48
2024/02/11 01:39:22;;;;;;;11.85;6.95;;;;;;;;;;5049474;28;20033;-50
2024/02/11 01:41:48;;;;;;;12.02;7.03;;;;;;;;;;5050849;28;20029;-52
2024/02/11 01:44:15;;;;;;;12.40;7.30;;;;;;;;;;5050860;28;20079;-48
2024/02/11 01:46:41;;;;;;;12.50;7.30;;;;;;;;;;5050790;28;20029;-48
2024/02/11 01:49:10;;;;;;;13.85;10.80;;;;;;;;;;5050697;28;20049;-53
2024/02/11 01:51:36;;;;;;;12.68;7.40;;;;;;;;;;5050538;28;20518;-53
2024/02/11 01:54:04;;;;;;;12.55;7.32;;;;;;;;;;5049343;28;20495;-49
2024/02/11 01:56:30;;;;;;;12.55;7.30;;;;;;;;;;5050686;28;20052;-52
2024/02/11 01:58:56;;;;;;;12.35;7.25;;;;;;;;;;5049063;28;20044;-47
2024/02/11 02:01:25;;;;;;;12.40;7.20;;;;;;;;;;5048873;28;20475;-48
2024/02/11 02:03:51;;;;;;;12.43;7.22;;;;;;;;;;5050371;28;20029;-53
2024/02/11 02:06:17;;;;;;;12.10;7.10;;;;;;;;;;5050572;28;20029;-50
2024/02/11 02:08:43;;;;;;;12.50;7.30;;;;;;;;;;5050574;28;20029;-51
2024/02/11 02:11:10;;;;;;;12.25;7.18;;;;;;;;;;5050473;28;20021;-49
2024/02/11 02:13:37;;;;;;;12.85;7.55;;;;;;;;;;5050278;28;20449;-52
2024/02/11 02:16:03;;;;;;;12.90;7.53;;;;;;;;;;5049151;28;20029;-49
2024/02/11 02:18:34;;;;;;;12.73;7.40;;;;;;;;;;5050332;28;20025;-48
2024/02/11 02:21:01;;;;;;;12.50;7.30;;;;;;;;;;5050713;28;20082;-53
2024/02/11 02:23:27;;;;;;;13.10;7.60;;;;;;;;;;5050435;28;20025;-50
2024/02/11 02:25:53;;;;;;;12.95;7.60;;;;;;;;;;5050580;28;20486;-49
2024/02/11 02:28:20;;;;;;;13.07;7.68;;;;;;;;;;5048861;28;20017;-50
2024/02/11 02:30:46;;;;;;;13.07;7.68;;;;;;;;;;5050305;28;20047;-48
2024/02/11 02:33:12;;;;;;;12.98;7.60;;;;;;;;;;5049976;28;20025;-46
2024/02/11 02:35:38;;;;;;;13.27;7.90;;;;;;;;;;5050052;28;20031;-50
2024/02/11 02:38:04;;;;;;;12.75;7.45;;;;;;;;;;5049991;28;20048;-48
2024/02/11 02:40:31;;;;;;;13.05;7.60;;;;;;;;;;5050049;28;20021;-51
2024/02/11 02:42:57;;;;;;;12.68;7.40;;;;;;;;;;5049805;28;20021;-53
2024/02/11 02:45:23;;;;;;;12.73;7.40;;;;;;;;;;5050032;28;20028;-54
2024/02/11 02:47:49;;;;;;;11.90;7.00;;;;;;;;;;5049680;28;20399;-52
2024/02/11 02:50:15;;;;;;;12.30;7.20;;;;;;;;;;5049904;28;20397;-52
2024/02/11 02:52:45;;;;;;;12.30;7.20;;;;;;;;;;5049561;28;20402;-53
2024/02/11 02:55:11;;;;;;;12.10;7.10;;;;;;;;;;5049892;28;20029;-54
2024/02/11 02:57:37;;;;;;;12.20;7.18;;;;;;;;;;5049576;28;20033;-54
2024/02/11 03:00:04;;;;;;;12.40;7.22;;;;;;;;;;5049922;28;20028;-56
2024/02/11 03:02:31;;;;;;;11.95;7.00;;;;;;;;;;5049450;28;20036;-51
2024/02/11 03:04:57;;;;;;;11.68;6.82;;;;;;;;;;5049131;28;20025;-56
2024/02/11 03:07:23;;;;;;;12.10;7.07;;;;;;;;;;5053789;28;20724;-53
2024/02/11 03:09:49;;;;;;;12.05;7.03;;;;;;;;;;5053979;28;20108;-48
2024/02/11 03:12:15;;;;;;;11.82;7.10;;;;;;;;;;5053572;28;20086;-53
2024/02/11 03:14:41;;;;;;;11.75;6.90;;;;;;;;;;5052434;28;20033;-49
2024/02/11 03:17:07;;;;;;;12.10;7.05;;;;;;;;;;5053698;28;20442;-53
2024/02/11 03:19:33;;;;;;;12.20;7.10;;;;;;;;;;5053527;28;20100;-50
2024/02/11 03:21:59;;;;;;;11.77;6.90;;;;;;;;;;5053518;28;20028;-54
2024/02/11 03:24:25;;;;;;;11.85;6.97;;;;;;;;;;5053527;28;20035;-51
2024/02/11 03:26:51;;;;;;;12.30;7.20;;;;;;;;;;5052462;28;20029;-50
2024/02/11 03:29:19;;;;;;;11.55;6.80;;;;;;;;;;5053663;28;20609;-49
2024/02/11 03:31:46;;;;;;;12.40;7.22;;;;;;;;;;5053443;28;20029;-51
2024/02/11 03:34:12;;;;;;;12.05;7.05;;;;;;;;;;5053553;28;20037;-54
2024/02/11 03:36:42;;;;;;;12.15;7.10;;;;;;;;;;5052517;28;20109;-52
2024/02/11 03:39:12;;;;;;;12.02;7.03;;;;;;;;;;5053553;28;20025;-52
2024/02/11 03:41:38;;;;;;;11.75;6.90;;;;;;;;;;5053292;28;20048;-50
2024/02/11 03:44:08;;;;;;;12.13;7.10;;;;;;;;;;5053349;28;20498;-51
2024/02/11 03:46:34;;;;;;;12.40;7.20;;;;;;;;;;5053374;28;20047;-51
2024/02/11 03:49:01;;;;;;;12.50;7.30;;;;;;;;;;5053250;28;20028;-52
2024/02/11 03:51:27;;;;;;;12.00;7.00;;;;;;;;;;5053313;28;20025;-50
2024/02/11 03:53:59;;;;;;;12.10;7.10;;;;;;;;;;5052932;28;20032;-51
2024/02/11 03:56:26;;;;;;;12.07;7.10;;;;;;;;;;5051766;28;20036;-48
2024/02/11 03:58:52;;;;;;;12.45;7.25;;;;;;;;;;5052910;28;20116;-48
2024/02/11 04:01:18;;;;;;;12.20;7.15;;;;;;;;;;5051513;28;20019;-50
2024/02/11 04:03:44;;;;;;;12.35;7.20;;;;;;;;;;5052861;28;20024;-51
2024/02/11 04:06:11;;;;;;;12.10;7.10;;;;;;;;;;5053060;28;20072;-50
2024/02/11 04:08:43;;;;;;;12.05;7.03;;;;;;;;;;5053174;28;20013;-54
2024/02/11 04:11:09;;;;;;;12.15;7.10;;;;;;;;;;5052673;28;20025;-50
2024/02/11 04:13:36;;;;;;;12.13;7.10;;;;;;;;;;5052502;28;20048;-54
2024/02/11 04:16:11;;;;;;;12.77;7.40;;;;;;;;;;5052667;28;20021;-54
2024/02/11 04:18:40;;;;;;;12.70;7.40;;;;;;;;;;5052571;28;20033;-48
2024/02/11 04:21:06;;;;;;;12.20;7.10;;;;;;;;;;5052441;28;20024;-47
2024/02/11 04:23:32;;;;;;;12.18;7.10;;;;;;;;;;5052496;28;20678;-48
2024/02/11 04:26:01;;;;;;;12.15;7.05;;;;;;;;;;5050966;28;20028;-49
2024/02/11 04:28:28;;;;;;;;;;;;;;;;;;5051611;28;20033;-53
2024/02/11 04:30:55;;;;;;;12.10;7.10;;;;;;;;;;5051290;28;20008;-51
2024/02/11 04:33:22;;;;;;;12.20;7.10;;;;;;;;;;5051315;28;20416;-50
2024/02/11 04:35:48;;;;;;;12.50;7.32;;;;;;;;;;5052392;28;20112;-49
2024/02/11 04:38:14;;;;;;;11.73;6.90;;;;;;;;;;5052187;28;20033;-51
2024/02/11 04:40:40;;;;;;;12.55;7.30;;;;;;;;;;5052098;28;20111;-51
2024/02/11 04:43:06;;;;;;;11.95;7.00;;;;;;;;;;5051883;28;20398;-55
2024/02/11 04:45:32;;;;;;;12.30;7.20;;;;;;;;;;5052127;28;20028;-54
2024/02/11 04:47:59;;;;;;;12.48;7.20;;;;;;;;;;5052033;28;20058;-54
2024/02/11 04:50:26;;;;;;;12.00;7.07;;;;;;;;;;5050665;28;20036;-50
2024/02/11 04:52:56;;;;;;;12.20;7.30;;;;;;;;;;5051498;28;20104;-52
2024/02/11 04:55:29;;;;;;;12.10;7.10;;;;;;;;;;5051868;28;20028;-52
2024/02/11 04:58:04;;;;;;;11.90;7.00;;;;;;;;;;5050308;28;20048;-53
2024/02/11 05:00:33;;;;;;;11.32;6.63;;;;;;;;;;5051728;28;20053;-52
2024/02/11 05:03:03;;;;;;;11.30;6.60;;;;;;;;;;5051351;28;20021;-48
2024/02/11 05:05:30;;;;;;;10.90;6.40;;;;;;;;;;5051765;28;20020;-50
2024/02/11 05:08:03;;;;;;;10.98;6.40;;;;;;;;;;5051717;28;20060;-52
2024/02/11 05:10:33;;;;;;;11.32;6.65;;;;;;;;;;5051662;28;20113;-53
2024/02/11 05:13:04;;;;;;;10.75;6.32;;;;;;;;;;5051576;28;20048;-50
2024/02/11 05:15:30;;;;;;;10.85;6.43;;;;;;;;;;5051613;28;20382;-54
2024/02/11 05:17:56;;;;;;;10.77;6.30;;;;;;;;;;5051539;28;20105;-51
2024/02/11 05:20:26;;;;;;;10.80;6.35;;;;;;;;;;5051265;28;20112;-51
2024/02/11 05:22:55;;;;;;;9.95;5.90;;;;;;;;;;5051065;28;20368;-50
2024/02/11 05:25:21;;;;;;;10.27;6.00;;;;;;;;;;5051198;28;20545;-49
2024/02/11 05:27:58;;;;;;;10.70;6.30;;;;;;;;;;5050829;28;20029;-52
2024/02/11 05:30:25;;;;;;;10.43;6.18;;;;;;;;;;5050787;28;20033;-51
2024/02/11 05:32:56;;;;;;;10.40;6.15;;;;;;;;;;5051122;28;20083;-51
2024/02/11 05:35:23;;;;;;;10.32;6.10;;;;;;;;;;5051073;28;20091;-50
2024/02/11 05:37:57;;;;;;;10.95;6.43;;;;;;;;;;5050942;28;20368;-48
2024/02/11 05:40:23;;;;;;;10.60;6.22;;;;;;;;;;5051091;28;20029;-50
2024/02/11 05:42:49;;;;;;;10.98;6.45;;;;;;;;;;5050852;28;20024;-51
2024/02/11 05:45:16;;;;;;;11.23;6.60;;;;;;;;;;5051069;28;20036;-49
2024/02/11 05:47:42;;;;;;;10.90;6.40;;;;;;;;;;5050949;28;20021;-48
2024/02/11 05:50:09;;;;;;;11.30;6.60;;;;;;;;;;5050982;28;20033;-48
2024/02/11 05:52:35;;;;;;;11.02;6.45;;;;;;;;;;5049410;28;20029;-51
2024/02/11 05:55:02;;;;;;;10.90;6.40;;;;;;;;;;5051158;28;20029;-52
2024/02/11 05:57:31;;;;;;;10.60;6.20;;;;;;;;;;5051231;28;20380;-50
2024/02/11 05:59:57;;;;;;;11.00;6.43;;;;;;;;;;5051231;28;20025;-47
2024/02/11 06:02:23;;;;;;;11.15;6.57;;;;;;;;;;5050939;28;20029;-54
2024/02/11 06:04:49;;;;;;;11.05;6.50;;;;;;;;;;5050831;28;20086;-52
2024/02/11 06:07:16;;;;;;;11.38;6.68;;;;;;;;;;5051206;28;20021;-52
2024/02/11 06:09:42;;;;;;;11.30;6.68;;;;;;;;;;5050962;28;20394;-49
2024/02/11 06:12:08;;;;;;;11.10;6.50;;;;;;;;;;5050651;28;20123;-51
2024/02/11 06:14:34;;;;;;;11.52;6.75;;;;;;;;;;5050603;28;20021;-48
2024/02/11 06:17:00;;;;;;;11.70;6.80;;;;;;;;;;5050897;28;20542;-54
2024/02/11 06:19:27;;;;;;;10.82;6.40;;;;;;;;;;5049083;28;20032;-48
2024/02/11 06:21:55;;;;;;;11.00;6.45;;;;;;;;;;5050202;28;20093;-48
2024/02/11 06:26:50;;;;;;;11.32;6.70;;;;;;;;;;5027532;28;20118;-60
2024/02/11 06:29:17;;;;;;;11.45;6.72;;;;;;;;;;5028980;28;20557;-58
2024/02/11 06:31:43;;;;;;;11.40;6.68;;;;;;;;;;5028757;28;20037;-59
2024/02/11 06:34:09;;;;;;;11.55;6.80;;;;;;;;;;5028947;28;20174;-60
2024/02/11 06:36:36;;;;;;;11.40;6.70;;;;;;;;;;5029102;28;20022;-58
2024/02/11 06:39:04;;;;;;;10.80;6.35;;;;;;;;;;5028769;28;20119;-59
2024/02/11 06:41:32;;;;;;;11.70;6.85;;;;;;;;;;5028368;28;20125;-58
2024/02/11 06:44:03;;;;;;;10.90;6.43;;;;;;;;;;5027505;28;20579;-60
2024/02/11 06:46:29;;;;;;;11.27;6.60;;;;;;;;;;5027478;28;20033;-58
2024/02/11 06:48:55;;;;;;;11.20;6.60;;;;;;;;;;5028746;28;20036;-58
2024/02/11 06:51:22;;;;;;;11.15;6.50;;;;;;;;;;5028785;28;20021;-59
2024/02/11 06:53:49;;;;;;;11.65;6.78;;;;;;;;;;5028478;28;20097;-56
2024/02/11 06:56:15;;;;;;;11.45;6.78;;;;;;;;;;5028444;28;20025;-59
2024/02/11 06:58:41;;;;;;;10.80;6.40;;;;;;;;;;5027259;28;20161;-59
2024/02/11 07:01:09;;;;;;;10.98;6.50;;;;;;;;;;5027264;28;20049;-58
2024/02/11 07:03:38;;;;;;;11.25;6.60;;;;;;;;;;5028328;28;20017;-57
2024/02/11 07:06:05;;;;;;;11.70;6.88;;;;;;;;;;5028574;28;20045;-58
2024/02/11 07:08:31;;;;;;;12.27;7.18;;;;;;;;;;5027315;28;20112;-58
2024/02/11 07:10:57;;;;;;;11.93;7.00;;;;;;;;;;5027227;28;20364;-59
2024/02/11 07:13:24;;;;;;;12.50;7.30;;;;;;;;;;5028345;28;20115;-60
2024/02/11 07:15:50;;;;;;;12.40;7.25;;;;;;;;;;5028499;28;20034;-60
2024/02/11 07:18:16;;;;;;;12.40;7.28;;;;;;;;;;5028720;28;20041;-59
2024/02/11 07:20:42;;;;;;;12.40;7.25;;;;;;;;;;5028567;28;20018;-58
2024/02/11 07:23:08;;;;;;;12.90;7.50;;;;;;;;;;5028597;28;20029;-59
2024/02/11 07:25:37;;;;;;;13.00;7.57;;;;;;;;;;5027084;28;20021;-60
2024/02/11 07:28:05;;;;;;;12.98;7.57;;;;;;;;;;5027413;28;20034;-58
2024/02/11 07:30:31;;;;;;;12.50;7.30;;;;;;;;;;5027104;28;20029;-60
2024/02/11 07:32:57;;;;;;;13.20;7.70;;;;;;;;;;5028464;28;20032;-56
2024/02/11 07:35:23;;;;;;;13.25;7.80;;;;;;;;;;5028496;28;20080;-57
2024/02/11 07:37:50;;;;;;;13.43;8.10;;;;;;;;;;5028190;28;20025;-58
2024/02/11 07:40:17;;;;;;;13.38;7.90;;;;;;;;;;5025646;28;20132;-59
2024/02/11 07:42:45;;;;;;;13.38;7.93;;;;;;;;;;5027970;28;20017;-58
2024/02/11 07:45:14;;;;;;;13.38;7.95;;;;;;;;;;5028130;28;20090;-57
2024/02/11 07:47:40;;;;;;;;;;;;;;;;;;5028744;28;20710;-58
2024/02/11 07:50:06;;;;;;;13.45;8.30;;;;;;;;;;5028087;28;19996;-58
2024/02/11 07:52:32;;;;;;;13.60;8.43;;;;;;;;;;5029582;28;20047;-57
2024/02/11 07:54:58;;;;;;;13.50;8.40;;;;;;;;;;5031693;28;20104;-58
2024/02/11 07:57:26;;;;;;;13.45;8.27;;;;;;;;;;5031515;28;20510;-59
2024/02/11 07:59:52;;;;;;;13.45;8.25;;;;;;;;;;5031610;28;20049;-59
2024/02/11 08:02:19;;;;;;;13.32;8.02;;;;;;;;;;5030142;28;20029;-57
2024/02/11 08:04:45;;;;;;;13.38;8.07;;;;;;;;;;5030157;28;20084;-60
2024/02/11 08:07:11;;;;;;;14.18;8.40;;;;;;;;;;5031387;28;20033;-58
2024/02/11 08:09:37;;;;;;;13.35;8.27;;;;;;;;;;5030007;28;20772;-58
2024/02/11 08:12:03;;;;;;;13.70;8.50;;;;;;;;;;5031180;28;20033;-59
2024/02/11 08:14:30;;;;;;;13.57;8.60;;;;;;;;;;5031221;28;20040;-58
2024/02/11 08:16:56;;;;;;;13.43;8.20;;;;;;;;;;5031305;28;20063;-59
2024/02/11 08:19:22;;;;;;;13.32;8.00;;;;;;;;;;5031163;28;20513;-58
2024/02/11 08:21:49;;;;;;;13.52;8.20;;;;;;;;;;5029612;28;20053;-58
2024/02/11 08:24:16;;;;;;;12.90;7.55;;;;;;;;;;5031190;28;20097;-57
2024/02/11 08:26:42;;;;;;;13.27;7.78;;;;;;;;;;5031111;28;20029;-58
2024/02/11 08:29:08;;;;;;;12.68;7.50;;;;;;;;;;5031211;28;20039;-57
2024/02/11 08:31:34;;;;;;;12.38;7.40;;;;;;;;;;5030763;28;20029;-58
2024/02/11 08:34:00;;;;;;;11.50;6.70;;;;;;;;;;5031326;28;20025;-57
2024/02/11 08:36:26;;;;;;;10.68;6.30;;;;;;;;;;5031156;28;20091;-55
2024/02/11 08:38:52;;;;;;;11.15;6.60;;;;;;;;;;5029505;28;20103;-56
2024/02/11 08:41:19;;;;;;;10.73;6.30;;;;;;;;;;5031172;28;20025;-57
2024/02/11 08:43:45;;;;;;;11.00;6.60;;;;;;;;;;5030884;28;20078;-55
2024/02/11 08:46:13;;;;;;;10.40;6.30;;;;;;;;;;5030894;28;20021;-55
2024/02/11 08:48:39;;;;;;;10.70;6.30;;;;;;;;;;5030821;28;20018;-56
2024/02/11 08:51:05;;;;;;;13.70;9.00;;;;;;;;;;5029382;28;20472;-57
2024/02/11 08:53:32;;;;;;;11.73;7.35;;;;;;;;;;5029146;28;20029;-55
2024/02/11 08:55:58;;;;;;;12.20;7.63;;;;;;;;;;5030520;28;20022;-57
2024/02/11 08:58:27;;;;;;;12.13;7.60;;;;;;;;;;5030592;28;20087;-59
2024/02/11 09:00:54;;;;;;;12.13;7.10;;;;;;;;;;5030620;28;20022;-54
2024/02/11 09:03:20;;;;;;;12.18;7.03;;;;;;;;;;5029616;28;20152;-57
2024/02/11 09:05:47;;;;;;;12.00;7.18;;;;;;;;;;5030411;28;20020;-56
2024/02/11 09:08:15;;;;;;;14.27;9.25;;;;;;;;;;5029479;28;20396;-57
2024/02/11 09:10:41;;;;;;;20.75;10.90;;;;;;;;;;5030411;28;20079;-58
2024/02/11 09:13:10;;;;;;;13.48;8.82;;;;;;;;;;5029564;28;20041;-57
2024/02/11 09:15:36;;;;;;;12.57;7.40;;;;;;;;;;5026135;28;20089;-57
2024/02/11 09:18:03;;;;;;;14.02;9.25;;;;;;;;;;5029559;28;20503;-55
2024/02/11 09:20:29;;;;;;;13.80;8.02;;;;;;;;;;5029607;28;20045;-56
2024/02/11 09:22:56;;;;;;;13.43;8.15;;;;;;;;;;5028234;28;20216;-51
2024/02/11 09:25:22;;;;;;;14.13;9.00;;;;;;;;;;5029228;28;20131;-56
2024/02/11 09:27:47;;;;;;;14.00;8.73;;;;;;;;;;5029761;28;20029;-52
2024/02/11 09:30:16;;;;;;;13.38;8.00;;;;;;;;;;5029845;28;20033;-54
2024/02/11 09:32:42;;;;;;;13.13;7.90;;;;;;;;;;5029769;28;20066;-55
2024/02/11 09:35:09;;;;;;;16.73;8.95;;;;;;;;;;5029802;28;20025;-57
2024/02/11 09:37:35;;;;;;;13.65;8.88;;;;;;;;;;5028496;28;20029;-53
2024/02/11 09:40:02;;;;;;;13.32;8.15;;;;;;;;;;5029591;28;20458;-59
2024/02/11 09:42:29;;;;;;;14.00;8.50;;;;;;;;;;5029924;28;20049;-66
2024/02/11 09:44:56;;;;;;;14.07;8.90;;;;;;;;;;5029665;28;20026;-53
2024/02/11 09:47:22;;;;;;;24.50;11.25;;;;;;;;;;5030030;28;20022;-55
2024/02/11 09:49:51;;;;;;;16.67;11.10;;;;;;;;;;5029801;28;20032;-56
2024/02/11 09:52:19;;;;;;;13.38;8.15;;;;;;;;;;5029483;28;20022;-55
2024/02/11 09:54:46;;;;;;;13.57;8.60;;;;;;;;;;5029758;28;20044;-57
2024/02/11 09:57:12;;;;;;;13.85;8.88;;;;;;;;;;5029843;28;20022;-57
2024/02/11 09:59:39;;;;;;;15.77;11.55;;;;;;;;;;5029802;28;20395;-57
2024/02/11 10:02:09;;;;;;;14.00;9.40;;;;;;;;;;5029456;28;20028;-57
2024/02/11 10:04:35;;;;;;;14.30;9.30;;;;;;;;;;5029526;28;20026;-58
2024/02/11 10:07:02;;;;;;;13.88;9.57;;;;;;;;;;5029369;28;20184;-54
2024/02/11 10:09:28;;;;;;;16.00;10.77;;;;;;;;;;5029613;28;20108;-58
2024/02/11 10:11:54;;;;;;;13.90;9.38;;;;;;;;;;5028086;28;20029;-56
2024/02/11 10:14:25;;;;;;;13.93;8.77;;;;;;;;;;5027847;28;20170;-56
2024/02/11 10:16:53;;;;;;;13.57;8.80;;;;;;;;;;5029380;28;20044;-58
2024/02/11 10:19:22;;;;;;;14.30;9.33;;;;;;;;;;5029442;28;20092;-56
2024/02/11 10:21:48;;;;;;;;;;;;;;;;;;5029785;28;20754;-54
2024/02/11 10:24:17;;;;;;;14.57;9.85;;;;;;;;;;5029231;28;20401;-54
2024/02/11 10:26:47;;;;;;;13.43;8.05;;;;;;;;;;5029177;28;20033;-56
2024/02/11 10:29:13;;;;;;;13.32;8.38;;;;;;;;;;5028997;28;20025;-58
2024/02/11 10:31:41;;;;;;;13.70;8.40;;;;;;;;;;5028776;28;20030;-58
2024/02/11 10:34:09;;;;;;;15.55;10.25;;;;;;;;;;5029152;28;20108;-58
2024/02/11 10:36:37;;;;;;;13.68;8.70;;;;;;;;;;5029298;28;20029;-56
2024/02/11 10:39:05;;;;;;;13.65;8.55;;;;;;;;;;5028922;28;20071;-55
2024/02/11 10:41:31;;;;;;;13.43;8.20;;;;;;;;;;5028752;28;20048;-55
2024/02/11 10:43:57;;;;;;;19.75;9.90;;;;;;;;;;5028760;28;20038;-61
2024/02/11 10:46:24;;;;;;;15.05;9.75;;;;;;;;;;5028787;28;20052;-52
2024/02/11 10:48:51;;;;;;;13.70;8.93;;;;;;;;;;5028877;28;20030;-57
2024/02/11 10:51:23;;;;;;;13.68;8.93;;;;;;;;;;5029460;28;20045;-56
2024/02/11 10:53:53;;;;;;;14.20;9.00;;;;;;;;;;5028625;28;20048;-59
2024/02/11 10:56:21;;;;;;;13.63;8.80;;;;;;;;;;5028776;28;20093;-55
2024/02/11 10:58:51;;;;;;;13.57;8.68;;;;;;;;;;5028955;28;20029;-54
2024/02/11 11:01:20;;;;;;;15.85;9.20;;;;;;;;;;5027648;28;20116;-50
2024/02/11 11:03:48;;;;;;;13.70;9.00;;;;;;;;;;5028704;28;20024;-55
2024/02/11 11:06:17;;;;;;;13.88;9.10;;;;;;;;;;5028614;28;20076;-57
2024/02/11 11:08:43;;;;;;;13.68;8.82;;;;;;;;;;5027609;28;20029;-53
2024/02/11 11:11:09;;;;;;;14.25;8.85;;;;;;;;;;5028668;28;20021;-51
2024/02/11 11:13:36;;;;;;;13.75;8.77;;;;;;;;;;5028528;28;20086;-51
2024/02/11 11:16:03;;;;;;;13.43;8.35;;;;;;;;;;5028480;28;20121;-53
2024/02/11 11:18:34;;;;;;;15.65;9.93;;;;;;;;;;5026933;28;20025;-62
2024/02/11 11:21:04;;;;;;;13.63;8.80;;;;;;;;;;5028624;28;20072;-52
2024/02/11 11:23:30;;;;;;;14.82;9.48;;;;;;;;;;5028368;28;20166;-49
2024/02/11 11:25:56;;;;;;;17.30;11.20;;;;;;;;;;5028889;28;20025;-49
2024/02/11 11:28:28;;;;;;;13.57;8.57;;;;;;;;;;5032114;28;20033;-56
2024/02/11 11:30:54;;;;;;;14.20;8.80;;;;;;;;;;5031937;28;20034;-56
2024/02/11 11:33:20;;;;;;;15.27;9.65;;;;;;;;;;5030545;28;20420;-52
2024/02/11 11:35:46;;;;;;;13.93;9.13;;;;;;;;;;5031686;28;20496;-54
2024/02/11 11:38:13;;;;;;;13.70;8.57;;;;;;;;;;5032145;28;20775;-53
2024/02/11 11:40:40;;;;;;;13.52;8.52;;;;;;;;;;5030478;28;20053;-56
2024/02/11 11:43:20;;;;;;;13.85;9.02;;;;;;;;;;5031735;28;20048;-53
2024/02/11 11:45:51;;;;;;;14.00;9.35;;;;;;;;;;5032301;28;20071;-54
2024/02/11 11:48:17;;;;;;;13.57;8.68;;;;;;;;;;5032601;28;20479;-55
2024/02/11 11:50:43;;;;;;;13.57;8.60;;;;;;;;;;5032608;28;20107;-54
2024/02/11 11:53:09;;;;;;;13.68;8.88;;;;;;;;;;5032073;28;20032;-60
2024/02/11 11:55:36;;;;;;;13.68;9.00;;;;;;;;;;5032196;28;20037;-61
2024/02/11 11:58:02;;;;;;;14.10;9.88;;;;;;;;;;5031961;28;20021;-62
2024/02/11 12:00:28;;;;;;;13.60;8.70;;;;;;;;;;5031753;28;20083;-59
2024/02/11 12:02:58;;;;;;;13.45;8.50;;;;;;;;;;5031909;28;20021;-62
2024/02/11 12:05:24;;;;;;;13.60;8.70;;;;;;;;;;5032564;28;20048;-58
2024/02/11 12:07:50;;;;;;;14.18;9.27;;;;;;;;;;5033170;28;20038;-56
2024/02/11 12:10:17;;;;;;;13.68;8.90;;;;;;;;;;5031738;28;20040;-56
2024/02/11 12:12:43;;;;;;;13.55;8.60;;;;;;;;;;5032860;28;20033;-58
2024/02/11 12:15:09;;;;;;;13.65;8.85;;;;;;;;;;5032743;28;20450;-58
2024/02/11 12:17:35;;;;;;;14.20;10.15;;;;;;;;;;5032680;28;20399;-58
2024/02/11 12:20:01;;;;;;;14.05;9.95;;;;;;;;;;5032927;28;20033;-58
2024/02/11 12:22:27;;;;;;;14.50;10.25;;;;;;;;;;5032526;28;20030;-57
2024/02/11 12:24:53;;;;;;;14.32;10.85;;;;;;;;;;5031856;28;20093;-57
2024/02/11 12:27:19;;;;;;;14.30;10.68;;;;;;;;;;5031047;28;20392;-58
2024/02/11 12:29:56;;;;;;;14.50;11.05;;;;;;;;;;5032647;28;20021;-58
2024/02/11 12:32:22;;;;;;;14.52;11.20;;;;;;;;;;5032236;28;20380;-55
2024/02/11 12:34:48;;;;;;;14.80;11.50;;;;;;;;;;5031968;28;20450;-56
2024/02/11 12:37:15;;;;;;;14.48;11.30;;;;;;;;;;5031090;28;20025;-58
2024/02/11 12:39:41;;;;;;;18.30;10.90;;;;;;;;;;5031330;28;20049;-56
2024/02/11 12:42:07;;;;;;;19.40;14.00;;;;;;;;;;5031779;28;20029;-62
2024/02/11 12:44:34;;;;;;;14.10;10.10;;;;;;;;;;5031293;28;20021;-60
2024/02/11 12:47:01;;;;;;;13.95;9.82;;;;;;;;;;5030702;28;20020;-57
2024/02/11 12:49:27;;;;;;;14.27;10.60;;;;;;;;;;5030608;28;20021;-57
2024/02/11 12:51:54;;;;;;;14.70;12.00;;;;;;;;;;5030650;28;20057;-54
2024/02/11 12:54:20;;;;;;;15.00;12.50;;;;;;;;;;5030825;28;20029;-59
2024/02/11 12:56:46;;;;;;;14.70;11.90;;;;;;;;;;5029618;28;20025;-53
2024/02/11 12:59:12;;;;;;;14.73;12.10;;;;;;;;;;5030532;28;20091;-56
2024/02/11 13:01:38;;;;;;;14.90;12.50;;;;;;;;;;5028896;28;20056;-54
2024/02/11 13:04:04;;;;;;;15.10;12.95;;;;;;;;;;5030293;28;20121;-56
2024/02/11 13:06:32;;;;;;;17.40;14.35;;;;;;;;;;5030295;28;20438;-57
2024/02/11 13:08:58;;;;;;;16.85;13.07;;;;;;;;;;5028982;28;20491;-57
2024/02/11 13:11:24;;;;;;;14.70;11.90;;;;;;;;;;5030206;28;20026;-57
2024/02/11 13:13:51;;;;;;;14.90;12.60;;;;;;;;;;5030308;28;20075;-55
2024/02/11 13:16:18;;;;;;;14.63;11.85;;;;;;;;;;5030088;28;20468;-53
2024/02/11 13:18:46;;;;;;;14.90;12.30;;;;;;;;;;5030412;28;20056;-52
2024/02/11 13:21:12;;;;;;;14.70;12.05;;;;;;;;;;5030390;28;20133;-53
2024/02/11 13:23:38;;;;;;;14.75;12.07;;;;;;;;;;5030419;28;20044;-50
2024/02/11 13:26:04;;;;;;;15.55;13.55;;;;;;;;;;5029996;28;20159;-53
2024/02/11 13:28:32;;;;;;;16.20;13.68;;;;;;;;;;5030183;28;20022;-58
2024/02/11 13:30:59;;;;;;;15.05;12.68;;;;;;;;;;5029256;28;20120;-55
2024/02/11 13:33:31;;;;;;;15.65;13.95;;;;;;;;;;5029990;28;20021;-56
2024/02/11 13:35:58;;;;;;;15.80;14.10;;;;;;;;;;5030197;28;20147;-56
2024/02/11 13:38:25;;;;;;;16.70;15.00;;;;;;;;;;5029829;28;20135;-58
2024/02/11 13:40:51;;;;;;;16.00;14.30;;;;;;;;;;5029666;28;20114;-57
2024/02/11 13:43:18;;;;;;;16.65;14.95;;;;;;;;;;5029943;28;20132;-59
2024/02/11 13:45:44;;;;;;;16.20;14.50;;;;;;;;;;5030194;28;20073;-50
2024/02/11 13:48:11;;;;;;;15.68;13.98;;;;;;;;;;5029820;28;20072;-56
2024/02/11 13:50:37;;;;;;;15.20;13.38;;;;;;;;;;5029479;28;20108;-54
2024/02/11 13:53:04;;;;;;;15.40;13.60;;;;;;;;;;5028074;28;20029;-55
2024/02/11 13:55:30;;;;;;;15.50;13.80;;;;;;;;;;5029542;28;20040;-55
2024/02/11 13:57:56;;;;;;;15.27;13.35;;;;;;;;;;5029553;28;20033;-58
2024/02/11 14:00:22;;;;;;;16.65;14.85;;;;;;;;;;5029548;28;20036;-57
2024/02/11 14:02:48;;;;;;;15.30;13.52;;;;;;;;;;5029086;28;20371;-53
2024/02/11 14:05:15;;;;;;;15.20;13.23;;;;;;;;;;5029422;28;20048;-58
2024/02/11 14:07:41;;;;;;;15.30;13.52;;;;;;;;;;5029358;28;20025;-52
2024/02/11 14:10:07;;;;;;;15.30;13.25;;;;;;;;;;5027953;28;20472;-53
2024/02/11 14:12:38;;;;;;;15.20;13.05;;;;;;;;;;5028792;28;20040;-54
2024/02/11 14:15:14;;;;;;;15.20;13.10;;;;;;;;;;5029116;28;20066;-56
2024/02/11 14:17:48;;;;;;;15.10;12.85;;;;;;;;;;5029026;28;20056;-52
2024/02/11 14:20:14;;;;;;;17.38;14.30;;;;;;;;;;5028743;28;20557;-55
2024/02/11 14:22:42;;;;;;;15.00;12.75;;;;;;;;;;5028789;28;20079;-54
2024/02/11 14:25:14;;;;;;;14.90;12.23;;;;;;;;;;5027572;28;20137;-56
2024/02/11 14:27:40;;;;;;;14.70;11.90;;;;;;;;;;5029152;28;20049;-53
2024/02/11 14:30:07;;;;;;;15.40;12.98;;;;;;;;;;5028964;28;20037;-55